BBRO2: Mountain Fork, Broken Bow Rereg

Data processed at Sat Mar 10 2018 23:36


All information presented herein is the property of the government of the United States of America and may be revised or deleted at any time without prior notice.
Dissemination of this information without the expressed written consent of the Public Affairs Office, Tulsa District U.S. Army Corps of Engineers is strictly prohibited.
These data are gathered electronically and, as presented, have not undergone any form of quality control. These data are not guaranteed to be valid or correct.
Go to home page.
Go to station list.

Upstream stations:

Downstream station:
Previous Day
Next Day
Current Day
    
SHEF ID:       BBRO2     Mountain Fork Re-regulation Dam
STATION TYPE:  

                STAGE  RIV-FLOW   VOLTAGE  BAT-LOAD
                   ft       cfs      volt      volt
              Ccp-Rev   Ccp-Rev   Ccp-Rev   Ccp-Rev
(US/Central)
03/08 00:00    398.64      4659     13.50     13.36
03/08 01:00    398.44      4361     13.50     13.36
03/08 02:00    398.31      4320     13.50     13.36
03/08 03:00    398.21      4289     13.50     13.36
03/08 04:00    398.15      4271     13.50     13.36
03/08 05:00    398.08      4249     13.50     13.36
03/08 06:00    398.60      4577     13.50     13.36
03/08 07:00    399.12      5873     13.50     13.36
03/08 08:00    399.30      6553     13.50     13.36
03/08 09:00    399.35      6755     13.60     13.36
03/08 10:00    399.37      6838     13.60     13.36
03/08 11:00    398.99      5436     13.60     13.42
03/08 12:00    398.64      4659     13.60     13.42
03/08 13:00    398.44      4361     13.60     13.42
03/08 14:00    398.31      4320     13.60     13.42
03/08 15:00    398.20      4286     13.60     13.42
03/08 16:00    398.10      4256     13.60     13.42
03/08 17:00    398.01      4228     13.60     13.42
03/08 18:00    397.93      4198     13.60     13.42
03/08 19:00    397.86      4172     13.60     13.42
03/08 20:00    397.79      4146     13.50     13.42
03/08 21:00    397.75      4131     13.50     13.42
03/08 22:00    397.73      4123     13.50     13.42
03/08 23:00    397.73      4123     13.50     13.42